sensor_id;sensor_type;location;lat;lon;timestamp;P1;durP1;ratioP1;P2;durP2;ratioP2
58468;SDS011;44257;44.804;10.220;2024-01-25T00:00:55;48.63;;;31.60;;
58468;SDS011;44257;44.804;10.220;2024-01-25T00:03:21;53.70;;;34.13;;
58468;SDS011;44257;44.804;10.220;2024-01-25T00:05:47;53.45;;;32.65;;
58468;SDS011;44257;44.804;10.220;2024-01-25T00:08:13;50.65;;;31.45;;
58468;SDS011;44257;44.804;10.220;2024-01-25T00:10:39;52.28;;;32.40;;
58468;SDS011;44257;44.804;10.220;2024-01-25T00:13:05;56.65;;;33.10;;
58468;SDS011;44257;44.804;10.220;2024-01-25T00:15:31;55.55;;;34.05;;
58468;SDS011;44257;44.804;10.220;2024-01-25T00:17:57;54.67;;;33.22;;
58468;SDS011;44257;44.804;10.220;2024-01-25T00:20:23;52.97;;;32.85;;
58468;SDS011;44257;44.804;10.220;2024-01-25T00:22:49;58.00;;;35.90;;
58468;SDS011;44257;44.804;10.220;2024-01-25T00:25:15;53.95;;;33.88;;
58468;SDS011;44257;44.804;10.220;2024-01-25T00:27:41;52.95;;;32.65;;
58468;SDS011;44257;44.804;10.220;2024-01-25T00:30:07;51.25;;;31.48;;
58468;SDS011;44257;44.804;10.220;2024-01-25T00:32:33;54.85;;;31.23;;
58468;SDS011;44257;44.804;10.220;2024-01-25T00:34:59;57.75;;;33.83;;
58468;SDS011;44257;44.804;10.220;2024-01-25T00:37:25;52.97;;;32.40;;
58468;SDS011;44257;44.804;10.220;2024-01-25T00:39:51;56.83;;;33.28;;
58468;SDS011;44257;44.804;10.220;2024-01-25T00:42:18;50.92;;;31.65;;
58468;SDS011;44257;44.804;10.220;2024-01-25T00:44:47;52.33;;;32.63;;
58468;SDS011;44257;44.804;10.220;2024-01-25T00:47:13;52.17;;;32.03;;
58468;SDS011;44257;44.804;10.220;2024-01-25T00:49:40;55.05;;;32.60;;
58468;SDS011;44257;44.804;10.220;2024-01-25T00:52:06;53.20;;;31.85;;
58468;SDS011;44257;44.804;10.220;2024-01-25T00:54:32;42.92;;;27.75;;
58468;SDS011;44257;44.804;10.220;2024-01-25T00:56:58;49.63;;;29.60;;
58468;SDS011;44257;44.804;10.220;2024-01-25T00:59:25;46.30;;;29.40;;
58468;SDS011;44257;44.804;10.220;2024-01-25T01:01:52;48.95;;;29.95;;
58468;SDS011;44257;44.804;10.220;2024-01-25T01:04:20;48.45;;;30.48;;
58468;SDS011;44257;44.804;10.220;2024-01-25T01:06:46;51.70;;;31.35;;
58468;SDS011;44257;44.804;10.220;2024-01-25T01:09:13;55.05;;;31.15;;
58468;SDS011;44257;44.804;10.220;2024-01-25T01:11:39;53.67;;;32.03;;
58468;SDS011;44257;44.804;10.220;2024-01-25T01:14:05;51.92;;;30.58;;
58468;SDS011;44257;44.804;10.220;2024-01-25T01:16:31;51.88;;;30.88;;
58468;SDS011;44257;44.804;10.220;2024-01-25T01:18:58;54.58;;;31.40;;
58468;SDS011;44257;44.804;10.220;2024-01-25T01:21:34;49.70;;;31.48;;
58468;SDS011;44257;44.804;10.220;2024-01-25T01:24:01;48.70;;;32.22;;
58468;SDS011;44257;44.804;10.220;2024-01-25T01:26:27;50.67;;;30.35;;
58468;SDS011;44257;44.804;10.220;2024-01-25T01:28:53;49.95;;;31.13;;
58468;SDS011;44257;44.804;10.220;2024-01-25T01:31:19;50.67;;;30.92;;
58468;SDS011;44257;44.804;10.220;2024-01-25T01:33:45;50.63;;;31.95;;
58468;SDS011;44257;44.804;10.220;2024-01-25T01:36:11;52.75;;;30.58;;
58468;SDS011;44257;44.804;10.220;2024-01-25T01:38:37;53.92;;;32.88;;
58468;SDS011;44257;44.804;10.220;2024-01-25T01:41:03;56.85;;;33.22;;
58468;SDS011;44257;44.804;10.220;2024-01-25T01:43:29;53.28;;;32.00;;
58468;SDS011;44257;44.804;10.220;2024-01-25T01:45:56;56.05;;;32.10;;
58468;SDS011;44257;44.804;10.220;2024-01-25T01:48:31;53.40;;;32.78;;
58468;SDS011;44257;44.804;10.220;2024-01-25T01:50:57;55.38;;;32.88;;
58468;SDS011;44257;44.804;10.220;2024-01-25T01:53:24;57.72;;;32.78;;
58468;SDS011;44257;44.804;10.220;2024-01-25T01:55:50;61.95;;;34.25;;
58468;SDS011;44257;44.804;10.220;2024-01-25T01:58:17;54.40;;;32.25;;
58468;SDS011;44257;44.804;10.220;2024-01-25T02:00:45;50.10;;;31.15;;
58468;SDS011;44257;44.804;10.220;2024-01-25T02:03:14;52.47;;;30.33;;
58468;SDS011;44257;44.804;10.220;2024-01-25T02:05:41;53.83;;;31.98;;
58468;SDS011;44257;44.804;10.220;2024-01-25T02:08:07;50.85;;;31.85;;
58468;SDS011;44257;44.804;10.220;2024-01-25T02:10:34;49.65;;;31.10;;
58468;SDS011;44257;44.804;10.220;2024-01-25T02:13:00;44.83;;;29.70;;
58468;SDS011;44257;44.804;10.220;2024-01-25T02:15:26;51.55;;;29.27;;
58468;SDS011;44257;44.804;10.220;2024-01-25T02:17:51;53.15;;;29.95;;
58468;SDS011;44257;44.804;10.220;2024-01-25T02:20:18;46.25;;;29.25;;
58468;SDS011;44257;44.804;10.220;2024-01-25T02:22:44;48.72;;;29.70;;
58468;SDS011;44257;44.804;10.220;2024-01-25T02:25:10;45.35;;;29.77;;
58468;SDS011;44257;44.804;10.220;2024-01-25T02:27:36;44.10;;;26.50;;
58468;SDS011;44257;44.804;10.220;2024-01-25T02:30:06;43.33;;;27.42;;
58468;SDS011;44257;44.804;10.220;2024-01-25T02:32:33;42.50;;;26.50;;
58468;SDS011;44257;44.804;10.220;2024-01-25T02:34:59;42.65;;;26.63;;
58468;SDS011;44257;44.804;10.220;2024-01-25T02:37:25;45.30;;;28.27;;
58468;SDS011;44257;44.804;10.220;2024-01-25T02:39:52;46.65;;;28.88;;
58468;SDS011;44257;44.804;10.220;2024-01-25T02:42:18;51.65;;;29.75;;
58468;SDS011;44257;44.804;10.220;2024-01-25T02:44:44;51.35;;;30.50;;
58468;SDS011;44257;44.804;10.220;2024-01-25T02:47:10;52.08;;;31.50;;
58468;SDS011;44257;44.804;10.220;2024-01-25T02:49:36;49.38;;;29.63;;
58468;SDS011;44257;44.804;10.220;2024-01-25T02:52:02;52.78;;;31.88;;
58468;SDS011;44257;44.804;10.220;2024-01-25T02:54:28;48.00;;;30.38;;
58468;SDS011;44257;44.804;10.220;2024-01-25T02:56:55;49.15;;;29.67;;
58468;SDS011;44257;44.804;10.220;2024-01-25T02:59:20;54.85;;;30.27;;
58468;SDS011;44257;44.804;10.220;2024-01-25T03:01:46;48.13;;;30.67;;
58468;SDS011;44257;44.804;10.220;2024-01-25T03:04:14;49.85;;;30.88;;
58468;SDS011;44257;44.804;10.220;2024-01-25T03:06:40;47.55;;;28.58;;
58468;SDS011;44257;44.804;10.220;2024-01-25T03:09:06;51.20;;;30.58;;
58468;SDS011;44257;44.804;10.220;2024-01-25T03:11:31;49.22;;;29.85;;
58468;SDS011;44257;44.804;10.220;2024-01-25T03:13:57;51.00;;;29.75;;
58468;SDS011;44257;44.804;10.220;2024-01-25T03:16:23;54.45;;;31.10;;
58468;SDS011;44257;44.804;10.220;2024-01-25T03:18:49;44.03;;;27.95;;
58468;SDS011;44257;44.804;10.220;2024-01-25T03:21:15;53.35;;;31.48;;
58468;SDS011;44257;44.804;10.220;2024-01-25T03:23:41;50.58;;;30.05;;
58468;SDS011;44257;44.804;10.220;2024-01-25T03:26:07;50.60;;;29.20;;
58468;SDS011;44257;44.804;10.220;2024-01-25T03:28:34;52.13;;;31.02;;
58468;SDS011;44257;44.804;10.220;2024-01-25T03:31:01;50.45;;;30.80;;
58468;SDS011;44257;44.804;10.220;2024-01-25T03:33:27;54.25;;;31.45;;
58468;SDS011;44257;44.804;10.220;2024-01-25T03:35:54;49.80;;;30.05;;
58468;SDS011;44257;44.804;10.220;2024-01-25T03:38:20;55.13;;;31.75;;
58468;SDS011;44257;44.804;10.220;2024-01-25T03:40:46;52.30;;;30.38;;
58468;SDS011;44257;44.804;10.220;2024-01-25T03:43:12;44.63;;;27.98;;
58468;SDS011;44257;44.804;10.220;2024-01-25T03:45:38;49.95;;;28.58;;
58468;SDS011;44257;44.804;10.220;2024-01-25T03:48:04;44.25;;;28.25;;
58468;SDS011;44257;44.804;10.220;2024-01-25T03:50:30;44.28;;;27.50;;
58468;SDS011;44257;44.804;10.220;2024-01-25T03:52:56;44.75;;;27.70;;
58468;SDS011;44257;44.804;10.220;2024-01-25T03:55:22;48.30;;;29.23;;
58468;SDS011;44257;44.804;10.220;2024-01-25T03:57:48;43.28;;;26.63;;
58468;SDS011;44257;44.804;10.220;2024-01-25T04:00:14;42.92;;;25.90;;
58468;SDS011;44257;44.804;10.220;2024-01-25T04:02:40;44.42;;;25.15;;
58468;SDS011;44257;44.804;10.220;2024-01-25T04:05:06;46.10;;;26.10;;
58468;SDS011;44257;44.804;10.220;2024-01-25T04:07:32;43.53;;;26.10;;
58468;SDS011;44257;44.804;10.220;2024-01-25T04:09:58;66.20;;;40.35;;
58468;SDS011;44257;44.804;10.220;2024-01-25T04:12:24;53.33;;;33.72;;
58468;SDS011;44257;44.804;10.220;2024-01-25T04:14:50;52.72;;;30.85;;
58468;SDS011;44257;44.804;10.220;2024-01-25T04:17:16;63.47;;;36.45;;
58468;SDS011;44257;44.804;10.220;2024-01-25T04:19:42;53.03;;;29.67;;
58468;SDS011;44257;44.804;10.220;2024-01-25T04:22:08;64.00;;;36.70;;
58468;SDS011;44257;44.804;10.220;2024-01-25T04:24:33;57.33;;;35.10;;
58468;SDS011;44257;44.804;10.220;2024-01-25T04:26:59;53.90;;;33.33;;
58468;SDS011;44257;44.804;10.220;2024-01-25T04:29:25;65.50;;;38.72;;
58468;SDS011;44257;44.804;10.220;2024-01-25T04:31:51;60.50;;;36.92;;
58468;SDS011;44257;44.804;10.220;2024-01-25T04:34:17;55.55;;;31.38;;
58468;SDS011;44257;44.804;10.220;2024-01-25T04:36:43;53.05;;;30.77;;
58468;SDS011;44257;44.804;10.220;2024-01-25T04:39:08;50.30;;;29.40;;
58468;SDS011;44257;44.804;10.220;2024-01-25T04:41:35;41.00;;;25.98;;
58468;SDS011;44257;44.804;10.220;2024-01-25T04:44:01;45.45;;;28.02;;
58468;SDS011;44257;44.804;10.220;2024-01-25T04:46:28;41.15;;;26.50;;
58468;SDS011;44257;44.804;10.220;2024-01-25T04:48:54;43.45;;;26.00;;
58468;SDS011;44257;44.804;10.220;2024-01-25T04:51:20;46.47;;;26.48;;
58468;SDS011;44257;44.804;10.220;2024-01-25T04:53:47;46.25;;;26.52;;
58468;SDS011;44257;44.804;10.220;2024-01-25T04:56:13;46.85;;;27.00;;
58468;SDS011;44257;44.804;10.220;2024-01-25T04:58:39;45.95;;;26.45;;
58468;SDS011;44257;44.804;10.220;2024-01-25T05:01:05;46.72;;;26.58;;
58468;SDS011;44257;44.804;10.220;2024-01-25T05:03:32;42.38;;;23.70;;
58468;SDS011;44257;44.804;10.220;2024-01-25T05:05:58;43.40;;;23.55;;
58468;SDS011;44257;44.804;10.220;2024-01-25T05:08:24;44.65;;;25.40;;
58468;SDS011;44257;44.804;10.220;2024-01-25T05:10:50;43.17;;;25.35;;
58468;SDS011;44257;44.804;10.220;2024-01-25T05:13:16;44.47;;;24.60;;
58468;SDS011;44257;44.804;10.220;2024-01-25T05:15:42;91.88;;;29.20;;
58468;SDS011;44257;44.804;10.220;2024-01-25T05:18:08;45.45;;;26.65;;
58468;SDS011;44257;44.804;10.220;2024-01-25T05:20:34;42.88;;;24.70;;
58468;SDS011;44257;44.804;10.220;2024-01-25T05:23:02;45.15;;;26.20;;
58468;SDS011;44257;44.804;10.220;2024-01-25T05:25:29;50.30;;;27.15;;
58468;SDS011;44257;44.804;10.220;2024-01-25T05:27:55;45.88;;;25.55;;
58468;SDS011;44257;44.804;10.220;2024-01-25T05:30:22;45.70;;;25.42;;
58468;SDS011;44257;44.804;10.220;2024-01-25T05:32:48;49.72;;;26.65;;
58468;SDS011;44257;44.804;10.220;2024-01-25T05:35:15;45.20;;;26.08;;
58468;SDS011;44257;44.804;10.220;2024-01-25T05:37:41;45.50;;;25.58;;
58468;SDS011;44257;44.804;10.220;2024-01-25T05:40:07;39.38;;;23.45;;
58468;SDS011;44257;44.804;10.220;2024-01-25T05:42:37;47.35;;;26.98;;
58468;SDS011;44257;44.804;10.220;2024-01-25T05:45:03;46.42;;;25.98;;
58468;SDS011;44257;44.804;10.220;2024-01-25T05:47:30;46.40;;;26.27;;
58468;SDS011;44257;44.804;10.220;2024-01-25T05:49:56;47.58;;;27.75;;
58468;SDS011;44257;44.804;10.220;2024-01-25T05:52:22;45.60;;;26.98;;
58468;SDS011;44257;44.804;10.220;2024-01-25T05:54:52;42.53;;;24.05;;
58468;SDS011;44257;44.804;10.220;2024-01-25T05:57:18;47.92;;;26.45;;
58468;SDS011;44257;44.804;10.220;2024-01-25T05:59:44;45.88;;;25.85;;
58468;SDS011;44257;44.804;10.220;2024-01-25T06:02:10;41.58;;;25.33;;
58468;SDS011;44257;44.804;10.220;2024-01-25T06:04:36;46.63;;;26.58;;
58468;SDS011;44257;44.804;10.220;2024-01-25T06:07:02;42.03;;;25.05;;
58468;SDS011;44257;44.804;10.220;2024-01-25T06:09:28;47.22;;;25.90;;
58468;SDS011;44257;44.804;10.220;2024-01-25T06:11:54;43.17;;;24.73;;
58468;SDS011;44257;44.804;10.220;2024-01-25T06:14:20;45.25;;;25.48;;
58468;SDS011;44257;44.804;10.220;2024-01-25T06:16:46;48.63;;;25.55;;
58468;SDS011;44257;44.804;10.220;2024-01-25T06:19:13;47.00;;;25.33;;
58468;SDS011;44257;44.804;10.220;2024-01-25T06:21:38;44.72;;;25.77;;
58468;SDS011;44257;44.804;10.220;2024-01-25T06:24:04;51.22;;;25.88;;
58468;SDS011;44257;44.804;10.220;2024-01-25T06:26:30;45.75;;;25.52;;
58468;SDS011;44257;44.804;10.220;2024-01-25T06:28:56;45.75;;;26.27;;
58468;SDS011;44257;44.804;10.220;2024-01-25T06:31:23;43.47;;;25.70;;
58468;SDS011;44257;44.804;10.220;2024-01-25T06:33:49;46.03;;;23.98;;
58468;SDS011;44257;44.804;10.220;2024-01-25T06:36:17;48.22;;;25.33;;
58468;SDS011;44257;44.804;10.220;2024-01-25T06:38:45;44.95;;;24.40;;
58468;SDS011;44257;44.804;10.220;2024-01-25T06:41:11;45.58;;;25.25;;
58468;SDS011;44257;44.804;10.220;2024-01-25T06:43:37;45.53;;;25.30;;
58468;SDS011;44257;44.804;10.220;2024-01-25T06:46:05;44.50;;;23.88;;
58468;SDS011;44257;44.804;10.220;2024-01-25T06:48:32;45.63;;;25.30;;
58468;SDS011;44257;44.804;10.220;2024-01-25T06:50:58;41.88;;;25.23;;
58468;SDS011;44257;44.804;10.220;2024-01-25T06:53:24;46.33;;;25.20;;
58468;SDS011;44257;44.804;10.220;2024-01-25T06:55:50;56.38;;;31.92;;
58468;SDS011;44257;44.804;10.220;2024-01-25T06:58:16;45.95;;;26.63;;
58468;SDS011;44257;44.804;10.220;2024-01-25T07:00:41;46.65;;;25.48;;
58468;SDS011;44257;44.804;10.220;2024-01-25T07:03:08;45.97;;;24.67;;
58468;SDS011;44257;44.804;10.220;2024-01-25T07:05:34;44.30;;;25.73;;
58468;SDS011;44257;44.804;10.220;2024-01-25T07:08:01;37.03;;;22.92;;
58468;SDS011;44257;44.804;10.220;2024-01-25T07:10:27;44.65;;;23.23;;
58468;SDS011;44257;44.804;10.220;2024-01-25T07:12:53;38.72;;;23.88;;
58468;SDS011;44257;44.804;10.220;2024-01-25T07:15:20;47.20;;;26.40;;
58468;SDS011;44257;44.804;10.220;2024-01-25T07:17:47;46.72;;;24.30;;
58468;SDS011;44257;44.804;10.220;2024-01-25T07:20:13;49.15;;;25.38;;
58468;SDS011;44257;44.804;10.220;2024-01-25T07:22:39;45.00;;;24.58;;
58468;SDS011;44257;44.804;10.220;2024-01-25T07:25:05;47.40;;;26.52;;
58468;SDS011;44257;44.804;10.220;2024-01-25T07:27:31;45.92;;;24.80;;
58468;SDS011;44257;44.804;10.220;2024-01-25T07:29:57;50.25;;;27.55;;
58468;SDS011;44257;44.804;10.220;2024-01-25T07:32:23;52.85;;;31.10;;
58468;SDS011;44257;44.804;10.220;2024-01-25T07:34:49;52.22;;;29.38;;
58468;SDS011;44257;44.804;10.220;2024-01-25T07:37:16;60.85;;;34.00;;
58468;SDS011;44257;44.804;10.220;2024-01-25T07:39:44;144.40;;;72.05;;
58468;SDS011;44257;44.804;10.220;2024-01-25T07:42:10;72.80;;;43.75;;
58468;SDS011;44257;44.804;10.220;2024-01-25T07:44:36;64.25;;;38.20;;
58468;SDS011;44257;44.804;10.220;2024-01-25T07:47:02;74.55;;;42.60;;
58468;SDS011;44257;44.804;10.220;2024-01-25T07:49:28;59.63;;;35.17;;
58468;SDS011;44257;44.804;10.220;2024-01-25T07:51:55;57.85;;;35.55;;
58468;SDS011;44257;44.804;10.220;2024-01-25T07:54:21;63.53;;;36.75;;
58468;SDS011;44257;44.804;10.220;2024-01-25T07:56:48;53.97;;;32.55;;
58468;SDS011;44257;44.804;10.220;2024-01-25T07:59:14;56.67;;;35.03;;
58468;SDS011;44257;44.804;10.220;2024-01-25T08:01:40;55.17;;;34.25;;
58468;SDS011;44257;44.804;10.220;2024-01-25T08:04:06;51.20;;;33.25;;
58468;SDS011;44257;44.804;10.220;2024-01-25T08:06:32;63.25;;;36.70;;
58468;SDS011;44257;44.804;10.220;2024-01-25T08:08:58;65.13;;;38.70;;
58468;SDS011;44257;44.804;10.220;2024-01-25T08:11:24;64.57;;;35.08;;
58468;SDS011;44257;44.804;10.220;2024-01-25T08:13:50;58.67;;;34.88;;
58468;SDS011;44257;44.804;10.220;2024-01-25T08:16:16;61.70;;;34.72;;
58468;SDS011;44257;44.804;10.220;2024-01-25T08:18:47;57.17;;;33.03;;
58468;SDS011;44257;44.804;10.220;2024-01-25T08:21:13;53.95;;;34.30;;
58468;SDS011;44257;44.804;10.220;2024-01-25T08:23:40;56.45;;;34.67;;
58468;SDS011;44257;44.804;10.220;2024-01-25T08:26:06;64.22;;;39.60;;
58468;SDS011;44257;44.804;10.220;2024-01-25T08:28:40;60.00;;;36.67;;
58468;SDS011;44257;44.804;10.220;2024-01-25T08:31:09;58.63;;;36.83;;
58468;SDS011;44257;44.804;10.220;2024-01-25T08:33:35;116.50;;;63.42;;
58468;SDS011;44257;44.804;10.220;2024-01-25T08:36:02;79.38;;;46.92;;
58468;SDS011;44257;44.804;10.220;2024-01-25T08:38:28;69.70;;;41.70;;
58468;SDS011;44257;44.804;10.220;2024-01-25T08:40:54;72.60;;;41.55;;
58468;SDS011;44257;44.804;10.220;2024-01-25T08:43:20;60.25;;;36.45;;
58468;SDS011;44257;44.804;10.220;2024-01-25T08:45:46;57.30;;;36.50;;
58468;SDS011;44257;44.804;10.220;2024-01-25T08:48:12;53.25;;;35.33;;
58468;SDS011;44257;44.804;10.220;2024-01-25T08:50:38;55.42;;;34.83;;
58468;SDS011;44257;44.804;10.220;2024-01-25T08:53:04;51.60;;;33.20;;
58468;SDS011;44257;44.804;10.220;2024-01-25T08:55:30;52.45;;;33.83;;
58468;SDS011;44257;44.804;10.220;2024-01-25T08:57:57;50.63;;;32.85;;
58468;SDS011;44257;44.804;10.220;2024-01-25T09:00:22;46.55;;;31.30;;
58468;SDS011;44257;44.804;10.220;2024-01-25T09:02:48;50.65;;;32.10;;
58468;SDS011;44257;44.804;10.220;2024-01-25T09:05:14;64.03;;;40.35;;
58468;SDS011;44257;44.804;10.220;2024-01-25T09:07:40;51.58;;;34.72;;
58468;SDS011;44257;44.804;10.220;2024-01-25T09:10:07;52.20;;;34.08;;
58468;SDS011;44257;44.804;10.220;2024-01-25T09:12:36;53.05;;;33.88;;
58468;SDS011;44257;44.804;10.220;2024-01-25T09:15:03;60.30;;;40.00;;
58468;SDS011;44257;44.804;10.220;2024-01-25T09:17:29;54.55;;;36.78;;
58468;SDS011;44257;44.804;10.220;2024-01-25T09:19:54;72.85;;;45.85;;
58468;SDS011;44257;44.804;10.220;2024-01-25T09:22:24;61.55;;;41.00;;
58468;SDS011;44257;44.804;10.220;2024-01-25T09:24:50;62.45;;;44.22;;
58468;SDS011;44257;44.804;10.220;2024-01-25T09:27:16;63.90;;;47.70;;
58468;SDS011;44257;44.804;10.220;2024-01-25T09:29:42;63.22;;;46.67;;
58468;SDS011;44257;44.804;10.220;2024-01-25T09:32:09;60.88;;;44.50;;
58468;SDS011;44257;44.804;10.220;2024-01-25T09:34:36;69.85;;;48.70;;
58468;SDS011;44257;44.804;10.220;2024-01-25T09:37:02;62.92;;;40.03;;
58468;SDS011;44257;44.804;10.220;2024-01-25T09:39:29;59.08;;;39.78;;
58468;SDS011;44257;44.804;10.220;2024-01-25T09:41:54;63.65;;;44.30;;
58468;SDS011;44257;44.804;10.220;2024-01-25T09:44:21;58.75;;;41.83;;
58468;SDS011;44257;44.804;10.220;2024-01-25T09:46:46;71.93;;;53.97;;
58468;SDS011;44257;44.804;10.220;2024-01-25T09:49:12;60.65;;;44.05;;
58468;SDS011;44257;44.804;10.220;2024-01-25T09:51:39;57.40;;;40.35;;
58468;SDS011;44257;44.804;10.220;2024-01-25T09:54:08;55.78;;;38.97;;
58468;SDS011;44257;44.804;10.220;2024-01-25T09:56:35;51.60;;;38.80;;
58468;SDS011;44257;44.804;10.220;2024-01-25T09:59:01;57.05;;;38.13;;
58468;SDS011;44257;44.804;10.220;2024-01-25T10:01:28;56.10;;;43.78;;
58468;SDS011;44257;44.804;10.220;2024-01-25T10:03:54;60.88;;;45.72;;
58468;SDS011;44257;44.804;10.220;2024-01-25T10:06:21;57.58;;;45.78;;
58468;SDS011;44257;44.804;10.220;2024-01-25T10:08:47;58.40;;;39.10;;
58468;SDS011;44257;44.804;10.220;2024-01-25T10:11:14;54.80;;;38.65;;
58468;SDS011;44257;44.804;10.220;2024-01-25T10:13:41;78.57;;;59.22;;
58468;SDS011;44257;44.804;10.220;2024-01-25T10:16:14;64.75;;;44.47;;
58468;SDS011;44257;44.804;10.220;2024-01-25T10:18:41;59.50;;;42.83;;
58468;SDS011;44257;44.804;10.220;2024-01-25T10:21:11;54.58;;;41.88;;
58468;SDS011;44257;44.804;10.220;2024-01-25T10:23:38;71.50;;;54.70;;
58468;SDS011;44257;44.804;10.220;2024-01-25T10:26:04;58.78;;;42.67;;
58468;SDS011;44257;44.804;10.220;2024-01-25T10:28:30;54.22;;;41.45;;
58468;SDS011;44257;44.804;10.220;2024-01-25T10:30:59;61.17;;;46.00;;
58468;SDS011;44257;44.804;10.220;2024-01-25T10:33:26;71.90;;;53.10;;
58468;SDS011;44257;44.804;10.220;2024-01-25T10:35:56;58.72;;;43.60;;
58468;SDS011;44257;44.804;10.220;2024-01-25T10:38:32;53.92;;;39.78;;
58468;SDS011;44257;44.804;10.220;2024-01-25T10:43:28;58.70;;;42.83;;
58468;SDS011;44257;44.804;10.220;2024-01-25T10:45:56;60.17;;;41.80;;
58468;SDS011;44257;44.804;10.220;2024-01-25T10:48:26;58.80;;;43.05;;
58468;SDS011;44257;44.804;10.220;2024-01-25T10:50:54;61.70;;;45.40;;
58468;SDS011;44257;44.804;10.220;2024-01-25T10:53:24;61.45;;;45.72;;
58468;SDS011;44257;44.804;10.220;2024-01-25T10:55:50;61.75;;;45.33;;
58468;SDS011;44257;44.804;10.220;2024-01-25T10:58:17;61.58;;;43.95;;
58468;SDS011;44257;44.804;10.220;2024-01-25T11:00:55;66.20;;;48.47;;
58468;SDS011;44257;44.804;10.220;2024-01-25T11:03:27;62.45;;;46.03;;
58468;SDS011;44257;44.804;10.220;2024-01-25T11:06:09;68.38;;;48.97;;
58468;SDS011;44257;44.804;10.220;2024-01-25T11:08:36;66.90;;;44.38;;
58468;SDS011;44257;44.804;10.220;2024-01-25T11:11:05;65.63;;;46.17;;
58468;SDS011;44257;44.804;10.220;2024-01-25T11:13:38;67.55;;;47.55;;
58468;SDS011;44257;44.804;10.220;2024-01-25T11:16:14;66.40;;;46.08;;
58468;SDS011;44257;44.804;10.220;2024-01-25T11:18:50;71.97;;;50.22;;
58468;SDS011;44257;44.804;10.220;2024-01-25T11:24:11;68.20;;;49.25;;
58468;SDS011;44257;44.804;10.220;2024-01-25T11:26:37;71.43;;;50.00;;
58468;SDS011;44257;44.804;10.220;2024-01-25T11:29:03;72.18;;;48.78;;
58468;SDS011;44257;44.804;10.220;2024-01-25T11:31:29;69.93;;;48.95;;
58468;SDS011;44257;44.804;10.220;2024-01-25T11:33:58;69.15;;;48.83;;
58468;SDS011;44257;44.804;10.220;2024-01-25T11:36:25;63.45;;;47.28;;
58468;SDS011;44257;44.804;10.220;2024-01-25T11:38:51;66.03;;;48.47;;
58468;SDS011;44257;44.804;10.220;2024-01-25T11:41:17;64.57;;;48.00;;
58468;SDS011;44257;44.804;10.220;2024-01-25T11:43:43;67.75;;;47.35;;
58468;SDS011;44257;44.804;10.220;2024-01-25T11:46:09;69.35;;;50.45;;
58468;SDS011;44257;44.804;10.220;2024-01-25T11:48:39;69.72;;;48.50;;
58468;SDS011;44257;44.804;10.220;2024-01-25T11:51:06;67.82;;;49.17;;
58468;SDS011;44257;44.804;10.220;2024-01-25T11:53:35;71.95;;;48.92;;
58468;SDS011;44257;44.804;10.220;2024-01-25T11:56:01;72.40;;;50.97;;
58468;SDS011;44257;44.804;10.220;2024-01-25T11:58:28;66.93;;;48.22;;
58468;SDS011;44257;44.804;10.220;2024-01-25T12:00:54;69.78;;;51.00;;
58468;SDS011;44257;44.804;10.220;2024-01-25T12:03:21;71.35;;;50.78;;
58468;SDS011;44257;44.804;10.220;2024-01-25T12:05:47;71.25;;;51.53;;
58468;SDS011;44257;44.804;10.220;2024-01-25T12:08:13;65.47;;;48.13;;
58468;SDS011;44257;44.804;10.220;2024-01-25T12:10:39;79.10;;;53.35;;
58468;SDS011;44257;44.804;10.220;2024-01-25T12:13:08;69.25;;;50.95;;
58468;SDS011;44257;44.804;10.220;2024-01-25T12:15:35;69.72;;;50.53;;
58468;SDS011;44257;44.804;10.220;2024-01-25T12:18:01;69.63;;;49.65;;
58468;SDS011;44257;44.804;10.220;2024-01-25T12:20:28;72.68;;;52.10;;
58468;SDS011;44257;44.804;10.220;2024-01-25T12:22:54;74.13;;;51.72;;
58468;SDS011;44257;44.804;10.220;2024-01-25T12:25:19;76.05;;;52.45;;
58468;SDS011;44257;44.804;10.220;2024-01-25T12:27:47;66.05;;;50.25;;
58468;SDS011;44257;44.804;10.220;2024-01-25T12:30:15;71.93;;;50.03;;
58468;SDS011;44257;44.804;10.220;2024-01-25T12:32:40;68.28;;;50.15;;
58468;SDS011;44257;44.804;10.220;2024-01-25T12:35:06;67.47;;;49.35;;
58468;SDS011;44257;44.804;10.220;2024-01-25T12:37:33;64.45;;;47.00;;
58468;SDS011;44257;44.804;10.220;2024-01-25T12:40:00;69.57;;;49.65;;
58468;SDS011;44257;44.804;10.220;2024-01-25T12:42:26;64.35;;;48.40;;
58468;SDS011;44257;44.804;10.220;2024-01-25T12:44:53;66.97;;;48.53;;
58468;SDS011;44257;44.804;10.220;2024-01-25T12:47:21;64.97;;;47.20;;
58468;SDS011;44257;44.804;10.220;2024-01-25T12:49:47;62.05;;;46.08;;
58468;SDS011;44257;44.804;10.220;2024-01-25T12:52:14;61.33;;;45.85;;
58468;SDS011;44257;44.804;10.220;2024-01-25T12:54:40;60.92;;;45.50;;
58468;SDS011;44257;44.804;10.220;2024-01-25T12:57:06;58.63;;;44.17;;
58468;SDS011;44257;44.804;10.220;2024-01-25T12:59:33;59.33;;;44.97;;
58468;SDS011;44257;44.804;10.220;2024-01-25T13:01:59;65.18;;;46.40;;
58468;SDS011;44257;44.804;10.220;2024-01-25T13:04:26;62.33;;;45.22;;
58468;SDS011;44257;44.804;10.220;2024-01-25T13:06:52;59.00;;;44.20;;
58468;SDS011;44257;44.804;10.220;2024-01-25T13:09:22;63.35;;;46.08;;
58468;SDS011;44257;44.804;10.220;2024-01-25T13:11:49;60.67;;;46.20;;
58468;SDS011;44257;44.804;10.220;2024-01-25T13:14:15;61.75;;;45.58;;
58468;SDS011;44257;44.804;10.220;2024-01-25T13:16:41;61.10;;;45.17;;
58468;SDS011;44257;44.804;10.220;2024-01-25T13:19:07;62.40;;;45.83;;
58468;SDS011;44257;44.804;10.220;2024-01-25T13:21:34;60.08;;;47.45;;
58468;SDS011;44257;44.804;10.220;2024-01-25T13:24:00;63.08;;;49.83;;
58468;SDS011;44257;44.804;10.220;2024-01-25T13:26:26;62.13;;;46.95;;
58468;SDS011;44257;44.804;10.220;2024-01-25T13:28:52;63.33;;;46.42;;
58468;SDS011;44257;44.804;10.220;2024-01-25T13:31:18;62.40;;;47.22;;
58468;SDS011;44257;44.804;10.220;2024-01-25T13:33:44;68.90;;;50.17;;
58468;SDS011;44257;44.804;10.220;2024-01-25T13:36:10;63.30;;;48.00;;
58468;SDS011;44257;44.804;10.220;2024-01-25T13:38:39;64.50;;;48.50;;
58468;SDS011;44257;44.804;10.220;2024-01-25T13:41:07;67.13;;;49.00;;
58468;SDS011;44257;44.804;10.220;2024-01-25T13:43:33;62.53;;;47.95;;
58468;SDS011;44257;44.804;10.220;2024-01-25T13:45:59;66.43;;;48.72;;
58468;SDS011;44257;44.804;10.220;2024-01-25T13:48:25;62.25;;;47.97;;
58468;SDS011;44257;44.804;10.220;2024-01-25T13:50:51;61.63;;;47.10;;
58468;SDS011;44257;44.804;10.220;2024-01-25T13:53:17;64.80;;;47.30;;
58468;SDS011;44257;44.804;10.220;2024-01-25T13:55:43;67.13;;;49.45;;
58468;SDS011;44257;44.804;10.220;2024-01-25T13:58:09;67.10;;;48.22;;
58468;SDS011;44257;44.804;10.220;2024-01-25T14:00:35;67.93;;;52.20;;
58468;SDS011;44257;44.804;10.220;2024-01-25T14:03:01;65.88;;;50.53;;
58468;SDS011;44257;44.804;10.220;2024-01-25T14:05:27;71.80;;;53.17;;
58468;SDS011;44257;44.804;10.220;2024-01-25T14:07:53;70.55;;;52.42;;
58468;SDS011;44257;44.804;10.220;2024-01-25T14:10:19;72.82;;;52.38;;